createdAt,value
2017-05-07T00:00:16.256Z,15.00
2017-05-07T00:02:43.904Z,20.02
2017-05-07T00:05:11.525Z,14.02
2017-05-07T00:07:39.118Z,14.66
2017-05-07T00:10:06.689Z,15.36
2017-05-07T00:12:34.216Z,21.26
2017-05-07T00:15:01.747Z,16.98
2017-05-07T00:17:29.333Z,16.02
2017-05-07T00:19:56.877Z,15.80
2017-05-07T00:22:24.451Z,16.90
2017-05-07T00:24:51.983Z,17.78
2017-05-07T00:27:19.849Z,20.34
2017-05-07T00:29:47.460Z,19.40
2017-05-07T00:32:14.985Z,15.56
2017-05-07T00:34:42.571Z,17.30
2017-05-07T00:37:10.096Z,16.50
2017-05-07T00:39:37.728Z,17.82
2017-05-07T00:42:05.294Z,19.68
2017-05-07T00:44:32.987Z,18.78
2017-05-07T00:47:00.544Z,22.48
2017-05-07T00:49:28.084Z,20.66
2017-05-07T00:51:55.674Z,18.92
2017-05-07T00:54:23.206Z,22.44
2017-05-07T00:56:50.805Z,21.44
2017-05-07T00:59:18.428Z,18.92
2017-05-07T01:01:46.137Z,20.38
2017-05-07T01:04:13.665Z,21.12
2017-05-07T01:06:41.196Z,21.92
2017-05-07T01:09:08.785Z,18.62
2017-05-07T01:11:36.487Z,21.38
2017-05-07T01:14:04.066Z,21.80
2017-05-07T01:16:31.680Z,23.18
2017-05-07T01:18:59.306Z,18.46
2017-05-07T01:21:26.861Z,20.64
2017-05-07T01:23:54.605Z,19.98
2017-05-07T01:26:22.133Z,22.02
2017-05-07T01:28:49.667Z,21.26
2017-05-07T01:31:17.232Z,20.36
2017-05-07T01:33:44.775Z,21.12
2017-05-07T01:36:12.523Z,17.76
2017-05-07T01:38:40.093Z,19.74
2017-05-07T01:41:07.626Z,22.40
2017-05-07T01:43:35.202Z,22.74
2017-05-07T01:46:02.732Z,17.56
2017-05-07T01:48:30.288Z,18.04
2017-05-07T01:50:57.818Z,18.46
2017-05-07T01:53:25.514Z,18.50
2017-05-07T01:55:53.045Z,18.08
2017-05-07T01:58:20.613Z,20.34
2017-05-07T02:00:48.231Z,20.22
2017-05-07T02:03:15.771Z,19.54
2017-05-07T02:05:43.343Z,22.18
2017-05-07T02:08:10.925Z,20.64
2017-05-07T02:10:38.548Z,25.10
2017-05-07T02:13:06.083Z,22.50
2017-05-07T02:15:33.871Z,22.62
2017-05-07T02:18:01.459Z,21.20
2017-05-07T02:20:29.004Z,20.42
2017-05-07T02:22:56.653Z,19.16
2017-05-07T02:25:24.213Z,22.64
2017-05-07T02:27:51.811Z,20.16
2017-05-07T02:30:19.367Z,20.06
2017-05-07T02:32:46.932Z,20.76
2017-05-07T02:35:14.563Z,17.84
2017-05-07T02:37:42.137Z,19.34
2017-05-07T02:40:09.684Z,19.42
2017-05-07T02:42:37.413Z,18.94
2017-05-07T02:45:04.968Z,20.56
2017-05-07T02:47:32.516Z,17.08
2017-05-07T02:50:00.153Z,17.24
2017-05-07T02:52:27.712Z,19.76
2017-05-07T02:54:55.291Z,20.50
2017-05-07T02:57:22.848Z,20.82
2017-05-07T02:59:50.544Z,18.70
2017-05-07T03:02:18.077Z,19.24
2017-05-07T03:04:45.616Z,21.32
2017-05-07T03:07:13.316Z,21.20
2017-05-07T03:09:40.861Z,16.12
2017-05-07T03:12:08.464Z,18.48
2017-05-07T03:14:36.024Z,18.40
2017-05-07T03:17:03.615Z,20.10
2017-05-07T03:19:31.195Z,19.20
2017-05-07T03:21:58.783Z,16.66
2017-05-07T03:24:26.340Z,19.58
2017-05-07T03:26:54.219Z,24.22
2017-05-07T03:29:21.752Z,18.30
2017-05-07T03:31:49.287Z,20.88
2017-05-07T03:34:16.898Z,22.96
2017-05-07T03:36:44.439Z,23.04
2017-05-07T03:39:12.023Z,19.24
2017-05-07T03:41:39.577Z,17.32
2017-05-07T03:44:07.279Z,22.50
2017-05-07T03:46:34.816Z,18.30
2017-05-07T03:49:02.380Z,21.44
2017-05-07T03:51:29.935Z,18.64
2017-05-07T03:53:57.457Z,19.34
2017-05-07T03:56:25.012Z,21.52
2017-05-07T03:58:52.648Z,17.52
2017-05-07T04:01:20.215Z,20.16
2017-05-07T04:03:47.753Z,24.12
2017-05-07T04:06:15.606Z,23.62
2017-05-07T04:08:43.145Z,28.46
2017-05-07T04:11:10.699Z,29.48
2017-05-07T04:13:38.260Z,26.34
2017-05-07T04:16:05.783Z,32.90
2017-05-07T04:18:33.338Z,28.30
2017-05-07T04:21:00.876Z,25.78
2017-05-07T04:23:28.712Z,26.76
2017-05-07T04:25:56.234Z,28.04
2017-05-07T04:28:23.765Z,31.16
2017-05-07T04:30:51.330Z,30.04
2017-05-07T04:33:18.856Z,30.02
2017-05-07T04:35:46.416Z,34.40
2017-05-07T04:38:13.958Z,32.46
2017-05-07T04:40:41.661Z,31.34
2017-05-07T04:43:09.180Z,33.44
2017-05-07T04:45:36.699Z,29.66
2017-05-07T04:48:04.284Z,30.98
2017-05-07T04:50:31.809Z,29.40
2017-05-07T04:52:59.388Z,31.10
2017-05-07T04:55:26.925Z,31.46
2017-05-07T04:57:54.544Z,31.80
2017-05-07T05:00:22.093Z,35.02
2017-05-07T05:02:49.769Z,33.76
2017-05-07T05:05:17.303Z,34.44
2017-05-07T05:07:45.279Z,32.36
2017-05-07T05:10:12.824Z,36.08
2017-05-07T05:12:40.354Z,31.48
2017-05-07T05:15:07.910Z,35.92
2017-05-07T05:17:35.476Z,35.40
2017-05-07T05:20:17.899Z,36.14
2017-05-07T05:22:48.371Z,34.14
2017-05-07T05:28:36.655Z,33.44
2017-05-07T05:31:05.304Z,35.46
2017-05-07T05:33:32.819Z,39.46
2017-05-07T05:36:00.359Z,34.80
2017-05-07T05:38:27.917Z,35.64
2017-05-07T05:40:55.455Z,40.94
2017-05-07T05:43:23.028Z,40.12
2017-05-07T05:45:50.629Z,34.92
2017-05-07T05:48:18.226Z,35.50
2017-05-07T05:50:46.200Z,32.28
2017-05-07T05:53:13.739Z,42.70
2017-05-07T05:55:41.633Z,38.42
2017-05-07T05:58:09.144Z,46.62
2017-05-07T06:00:36.672Z,40.74
2017-05-07T06:03:04.244Z,34.42
2017-05-07T06:05:31.767Z,38.08
2017-05-07T06:07:59.340Z,36.38
2017-05-07T06:10:26.875Z,39.14
2017-05-07T06:12:54.453Z,34.82
2017-05-07T06:15:22.002Z,33.12
2017-05-07T06:17:49.577Z,35.28
2017-05-07T06:20:17.103Z,34.60
2017-05-07T06:22:44.974Z,34.40
2017-05-07T06:25:12.510Z,35.84
2017-05-07T06:27:40.037Z,36.94
2017-05-07T06:30:07.659Z,37.66
2017-05-07T06:32:35.207Z,35.30
2017-05-07T06:35:02.845Z,43.50
2017-05-07T06:37:30.420Z,39.88
2017-05-07T06:39:58.050Z,32.26
2017-05-07T06:42:25.599Z,38.68
2017-05-07T06:44:53.161Z,33.42
2017-05-07T06:47:20.696Z,36.96
2017-05-07T06:49:48.638Z,37.74
2017-05-07T06:52:16.167Z,42.00
2017-05-07T06:54:43.730Z,43.80
2017-05-07T06:57:11.429Z,38.00
2017-05-07T06:59:38.974Z,37.16
2017-05-07T07:02:06.512Z,45.02
2017-05-07T07:04:34.064Z,43.34
2017-05-07T07:07:01.604Z,40.98
2017-05-07T07:09:29.147Z,44.76
2017-05-07T07:11:56.691Z,39.04
2017-05-07T07:14:24.332Z,38.94
2017-05-07T07:16:51.877Z,48.48
2017-05-07T07:19:19.483Z,38.32
2017-05-07T07:21:47.027Z,42.36
2017-05-07T07:24:14.587Z,41.86
2017-05-07T07:26:42.173Z,44.10
2017-05-07T07:29:09.716Z,37.60
2017-05-07T07:31:37.254Z,33.12
2017-05-07T07:34:05.191Z,47.04
2017-05-07T07:36:32.816Z,42.36
2017-05-07T07:39:00.359Z,38.02
2017-05-07T07:41:27.935Z,38.22
2017-05-07T07:43:55.476Z,44.76
2017-05-07T07:46:23.510Z,37.92
2017-05-07T07:48:51.032Z,42.14
2017-05-07T07:51:18.588Z,42.32
2017-05-07T07:53:46.162Z,44.84
2017-05-07T07:56:13.756Z,44.44
2017-05-07T07:58:41.301Z,43.42
2017-05-07T08:01:08.834Z,45.90
2017-05-07T08:03:36.673Z,41.52
2017-05-07T08:06:04.253Z,43.84
2017-05-07T08:08:31.806Z,41.66
2017-05-07T08:10:59.395Z,40.08
2017-05-07T08:13:26.942Z,43.08
2017-05-07T08:15:54.853Z,43.86
2017-05-07T08:18:22.618Z,46.40
2017-05-07T08:20:50.163Z,52.46
2017-05-07T08:23:17.780Z,49.60
2017-05-07T08:25:45.313Z,51.02
2017-05-07T08:28:12.988Z,53.86
2017-05-07T08:30:41.011Z,56.94
2017-05-07T08:33:08.570Z,53.30
2017-05-07T08:35:36.127Z,63.68
2017-05-07T08:38:03.724Z,58.80
2017-05-07T08:40:31.279Z,64.68
2017-05-07T08:42:58.821Z,67.80
2017-05-07T08:45:26.393Z,69.04
2017-05-07T08:47:53.912Z,81.90
2017-05-07T08:50:21.471Z,77.76
2017-05-07T08:52:49.041Z,73.26
2017-05-07T08:55:16.603Z,70.80
2017-05-07T08:57:44.197Z,77.14
2017-05-07T09:00:11.744Z,82.42
2017-05-07T09:02:39.322Z,82.40
2017-05-07T09:05:07.034Z,82.76
2017-05-07T09:07:34.611Z,85.92
2017-05-07T09:10:02.188Z,82.66
2017-05-07T09:12:36.664Z,79.32
2017-05-07T09:15:11.597Z,88.42
2017-05-07T09:17:40.009Z,82.16
2017-05-07T09:20:07.526Z,81.62
2017-05-07T09:22:35.125Z,81.04
2017-05-07T09:25:02.663Z,85.52
2017-05-07T09:27:30.539Z,77.94
2017-05-07T09:29:58.113Z,84.04
2017-05-07T09:32:25.645Z,83.26
2017-05-07T09:34:53.213Z,84.88
2017-05-07T09:37:20.755Z,86.86
2017-05-07T09:39:48.335Z,90.16
2017-05-07T09:42:15.876Z,88.00
2017-05-07T09:44:43.623Z,77.70
2017-05-07T09:47:11.165Z,85.18
2017-05-07T09:49:38.745Z,79.24
2017-05-07T09:52:06.433Z,85.66
2017-05-07T09:54:33.987Z,92.12
2017-05-07T09:57:01.717Z,85.18
2017-05-07T09:59:29.274Z,77.80
2017-05-07T10:01:56.814Z,74.30
2017-05-07T10:04:24.397Z,74.64
2017-05-07T10:06:51.948Z,74.48
2017-05-07T10:09:19.548Z,75.32
2017-05-07T10:11:47.095Z,77.16
2017-05-07T10:14:14.916Z,69.20
2017-05-07T10:16:42.473Z,69.54
2017-05-07T10:19:10.104Z,67.78
2017-05-07T10:21:37.789Z,70.22
2017-05-07T10:24:05.327Z,66.04
2017-05-07T10:26:32.915Z,67.64
2017-05-07T10:29:00.466Z,76.62
2017-05-07T10:31:28.216Z,72.26
2017-05-07T10:33:55.753Z,65.52
2017-05-07T10:36:23.337Z,73.22
2017-05-07T10:38:50.935Z,69.64
2017-05-07T10:41:18.463Z,61.80
2017-05-07T10:43:46.095Z,69.58
2017-05-07T10:46:13.632Z,69.36
2017-05-07T10:48:41.246Z,71.14
2017-05-07T10:51:08.840Z,68.80
2017-05-07T10:53:36.404Z,68.16
2017-05-07T10:56:04.829Z,70.94
2017-05-07T10:58:32.395Z,64.84
2017-05-07T11:00:59.926Z,83.08
2017-05-07T11:03:27.517Z,70.14
2017-05-07T11:05:55.062Z,67.34
2017-05-07T11:08:22.925Z,71.64
2017-05-07T11:10:50.476Z,65.90
2017-05-07T11:13:18.091Z,64.84
2017-05-07T11:15:45.688Z,60.50
2017-05-07T11:18:13.291Z,66.38
2017-05-07T11:20:41.019Z,65.94
2017-05-07T11:23:08.652Z,66.50
2017-05-07T11:25:36.461Z,63.66
2017-05-07T11:28:04.113Z,65.64
2017-05-07T11:30:31.663Z,70.54
2017-05-07T11:32:59.452Z,71.14
2017-05-07T11:35:27.014Z,62.58
2017-05-07T11:37:54.556Z,70.02
2017-05-07T11:40:22.139Z,68.12
2017-05-07T11:42:49.690Z,63.52
2017-05-07T11:45:17.283Z,65.78
2017-05-07T11:47:44.916Z,61.87
2017-05-07T11:50:12.578Z,68.08
2017-05-07T11:52:40.215Z,63.22
2017-05-07T11:55:07.838Z,59.98
2017-05-07T11:57:35.476Z,60.72
2017-05-07T12:00:03.084Z,60.22
2017-05-07T12:02:31.019Z,56.08
2017-05-07T12:04:58.584Z,60.88
2017-05-07T12:07:26.584Z,58.82
2017-05-07T12:09:54.588Z,53.96
2017-05-07T12:12:22.211Z,61.05
2017-05-07T12:14:49.831Z,57.66
2017-05-07T12:17:17.601Z,48.10
2017-05-07T12:19:45.186Z,48.74
2017-05-07T12:22:12.722Z,47.90
2017-05-07T12:24:40.326Z,54.24
2017-05-07T12:27:07.863Z,54.62
2017-05-07T12:29:35.438Z,49.84
2017-05-07T12:32:03.291Z,55.82
2017-05-07T12:34:30.827Z,52.52
2017-05-07T12:36:58.344Z,52.30
2017-05-07T12:39:26.031Z,40.50
2017-05-07T12:41:53.560Z,37.90
2017-05-07T12:44:21.100Z,42.18
2017-05-07T12:46:48.701Z,40.78
2017-05-07T12:49:16.227Z,47.44
2017-05-07T12:51:44.139Z,42.80
2017-05-07T12:54:11.689Z,39.26
2017-05-07T12:56:39.212Z,42.32
2017-05-07T12:59:06.793Z,41.82
2017-05-07T13:01:34.319Z,38.18
2017-05-07T13:04:01.893Z,40.92
2017-05-07T13:06:29.424Z,36.22
2017-05-07T13:08:57.369Z,35.48
2017-05-07T13:11:24.907Z,33.06
2017-05-07T13:13:52.435Z,35.90
2017-05-07T13:16:20.014Z,35.18
2017-05-07T13:18:47.549Z,32.16
2017-05-07T13:21:15.136Z,32.88
2017-05-07T13:23:42.668Z,30.92
2017-05-07T13:26:10.343Z,34.46
2017-05-07T13:28:37.872Z,36.50
2017-05-07T13:31:05.436Z,35.56
2017-05-07T13:33:33.008Z,30.88
2017-05-07T13:36:00.561Z,32.08
2017-05-07T13:38:28.144Z,28.70
2017-05-07T13:40:56.079Z,29.22
2017-05-07T13:43:24.200Z,24.80
2017-05-07T13:45:52.508Z,28.42
2017-05-07T13:48:21.225Z,23.28
2017-05-07T13:50:49.662Z,26.52
2017-05-07T13:53:17.566Z,24.42
2017-05-07T13:55:45.890Z,18.12
2017-05-07T13:58:13.418Z,21.92
2017-05-07T14:00:41.170Z,19.16
2017-05-07T14:03:08.697Z,20.26
2017-05-07T14:05:36.208Z,19.76
2017-05-07T14:08:03.823Z,15.20
2017-05-07T14:10:31.395Z,17.72
2017-05-07T14:12:58.972Z,18.42
2017-05-07T14:15:26.568Z,16.26
2017-05-07T14:17:54.524Z,20.06
2017-05-07T14:20:22.297Z,18.26
2017-05-07T14:22:49.840Z,15.56
2017-05-07T14:25:17.520Z,14.88
2017-05-07T14:27:45.121Z,19.12
2017-05-07T14:30:12.731Z,16.20
2017-05-07T14:32:40.701Z,18.98
2017-05-07T14:35:08.276Z,16.98
2017-05-07T14:37:35.882Z,22.96
2017-05-07T14:40:03.621Z,20.90
2017-05-07T14:42:32.861Z,21.32
2017-05-07T14:45:00.655Z,21.44
2017-05-07T14:47:28.771Z,20.84
2017-05-07T14:49:56.359Z,20.92
2017-05-07T14:52:23.964Z,29.02
2017-05-07T14:54:51.729Z,26.72
2017-05-07T14:57:19.356Z,27.38
2017-05-07T14:59:46.938Z,24.44
2017-05-07T15:02:14.643Z,25.86
2017-05-07T15:04:42.215Z,22.34
2017-05-07T15:07:09.776Z,25.92
2017-05-07T15:09:37.359Z,24.24
2017-05-07T15:12:04.912Z,23.22
2017-05-07T15:14:32.490Z,22.50
2017-05-07T15:17:00.108Z,21.02
2017-05-07T15:19:27.837Z,22.30
2017-05-07T15:21:55.406Z,26.86
2017-05-07T15:24:22.991Z,27.76
2017-05-07T15:26:51.032Z,26.82
2017-05-07T15:29:18.615Z,23.40
2017-05-07T15:31:46.342Z,22.52
2017-05-07T15:34:14.090Z,21.90
2017-05-07T15:36:41.728Z,24.66
2017-05-07T15:39:09.287Z,25.36
2017-05-07T15:41:36.969Z,25.82
2017-05-07T15:44:04.634Z,26.60
2017-05-07T15:46:32.200Z,24.16
2017-05-07T15:48:59.950Z,22.94
2017-05-07T15:51:27.535Z,24.18
2017-05-07T15:53:55.452Z,23.46
2017-05-07T15:56:23.055Z,26.10
2017-05-07T15:58:50.617Z,24.78
2017-05-07T16:01:18.219Z,27.10
2017-05-07T16:03:45.768Z,24.12
2017-05-07T16:06:13.951Z,22.40
2017-05-07T16:08:41.499Z,23.94
2017-05-07T16:11:09.067Z,22.56
2017-05-07T16:13:36.685Z,21.64
2017-05-07T16:16:19.932Z,21.16
2017-05-07T16:22:09.812Z,19.56
2017-05-07T16:24:52.992Z,21.70
2017-05-07T16:27:42.223Z,21.62
2017-05-07T16:30:12.940Z,22.90
2017-05-07T16:32:40.497Z,19.16
2017-05-07T16:35:08.088Z,18.88
2017-05-07T16:37:35.627Z,19.60
2017-05-07T16:40:04.324Z,19.70
2017-05-07T16:42:31.864Z,20.46
2017-05-07T16:45:06.657Z,18.62
2017-05-07T16:47:34.252Z,19.26
2017-05-07T16:50:01.819Z,17.42
2017-05-07T16:52:29.847Z,17.70
2017-05-07T16:54:57.616Z,16.22
2017-05-07T16:57:25.154Z,16.88
2017-05-07T16:59:52.779Z,16.12
2017-05-07T17:02:20.328Z,20.22
2017-05-07T17:04:48.056Z,15.52
2017-05-07T17:07:21.160Z,17.90
2017-05-07T17:09:48.860Z,18.26
2017-05-07T17:12:16.456Z,17.46
2017-05-07T17:14:44.000Z,16.88
2017-05-07T17:17:11.614Z,20.14
2017-05-07T17:19:39.209Z,19.70
2017-05-07T17:22:06.784Z,21.56
2017-05-07T17:24:34.315Z,21.58
2017-05-07T17:27:02.035Z,19.88
2017-05-07T17:29:29.669Z,20.64
2017-05-07T17:31:57.515Z,21.08
2017-05-07T17:34:25.065Z,18.30
2017-05-07T17:36:52.741Z,20.90
2017-05-07T17:39:20.326Z,23.36
2017-05-07T17:41:47.919Z,23.64
2017-05-07T17:44:15.491Z,19.64
2017-05-07T17:46:43.048Z,22.86
2017-05-07T17:49:10.687Z,18.42
2017-05-07T17:51:38.294Z,22.50
2017-05-07T17:54:06.021Z,19.86
2017-05-07T17:56:33.576Z,20.62
2017-05-07T17:59:01.451Z,18.30
2017-05-07T18:01:28.985Z,22.18
2017-05-07T18:03:56.576Z,24.16
2017-05-07T18:06:24.157Z,19.06
2017-05-07T18:08:51.716Z,19.30
2017-05-07T18:11:19.289Z,17.82
2017-05-07T18:13:46.839Z,16.86
2017-05-07T18:16:14.571Z,20.20
2017-05-07T18:18:42.187Z,16.34
2017-05-07T18:21:09.791Z,20.50
2017-05-07T18:23:37.848Z,21.98
2017-05-07T18:26:05.389Z,16.88
2017-05-07T18:28:32.959Z,24.04
2017-05-07T18:31:00.496Z,22.02
2017-05-07T18:33:29.271Z,19.60
2017-05-07T18:35:56.817Z,18.24
2017-05-07T18:38:24.353Z,18.02
2017-05-07T18:40:51.912Z,19.98
2017-05-07T18:43:19.735Z,20.02
2017-05-07T18:45:47.255Z,19.68
2017-05-07T18:48:14.826Z,18.16
2017-05-07T18:50:42.427Z,19.14
2017-05-07T18:53:10.002Z,22.50
2017-05-07T18:55:37.524Z,18.54
2017-05-07T18:58:05.403Z,19.16
2017-05-07T19:00:32.939Z,21.26
2017-05-07T19:03:00.535Z,21.06
2017-05-07T19:05:28.147Z,22.42
2017-05-07T19:07:55.750Z,14.76
2017-05-07T19:10:23.699Z,17.18
2017-05-07T19:12:51.285Z,20.36
2017-05-07T19:15:18.873Z,20.08
2017-05-07T19:17:46.602Z,24.42
2017-05-07T19:20:14.223Z,19.16
2017-05-07T19:22:41.880Z,26.80
2017-05-07T19:25:09.505Z,22.96
2017-05-07T19:27:37.112Z,24.34
2017-05-07T19:30:04.689Z,20.32
2017-05-07T19:32:32.638Z,26.98
2017-05-07T19:35:00.254Z,23.32
2017-05-07T19:37:27.817Z,21.56
2017-05-07T19:39:55.644Z,27.04
2017-05-07T19:42:23.250Z,24.76
2017-05-07T19:44:50.789Z,22.62
2017-05-07T19:47:18.403Z,21.22
2017-05-07T19:49:45.952Z,24.32
2017-05-07T19:52:13.625Z,23.84
2017-05-07T19:54:41.171Z,23.78
2017-05-07T19:57:08.749Z,50.70
2017-05-07T19:59:36.348Z,39.58
2017-05-07T20:02:03.905Z,24.42
2017-05-07T20:04:31.671Z,27.72
2017-05-07T20:06:59.278Z,24.16
2017-05-07T20:09:26.795Z,20.82
2017-05-07T20:11:54.359Z,17.04
2017-05-07T20:14:21.905Z,20.86
2017-05-07T20:16:49.538Z,21.30
2017-05-07T20:19:17.082Z,16.26
2017-05-07T20:21:44.647Z,20.44
2017-05-07T20:24:12.201Z,15.78
2017-05-07T20:26:39.769Z,17.40
2017-05-07T20:29:07.719Z,15.72
2017-05-07T20:31:35.278Z,14.90
2017-05-07T20:34:02.812Z,18.06
2017-05-07T20:36:30.651Z,18.12
2017-05-07T20:38:58.184Z,15.78
2017-05-07T20:41:25.727Z,15.34
2017-05-07T20:43:53.287Z,15.02
2017-05-07T20:46:20.831Z,18.82
2017-05-07T20:48:48.423Z,14.66
2017-05-07T20:51:16.110Z,17.36
2017-05-07T20:53:43.656Z,14.58
2017-05-07T20:56:11.226Z,15.42
2017-05-07T20:58:38.832Z,15.52
2017-05-07T21:01:06.375Z,16.30
2017-05-07T21:03:34.015Z,16.24
2017-05-07T21:06:01.553Z,18.32
2017-05-07T21:08:29.128Z,15.16
2017-05-07T21:10:56.676Z,17.42
2017-05-07T21:13:24.263Z,16.52
2017-05-07T21:15:51.800Z,19.20
2017-05-07T21:18:19.487Z,17.26
2017-05-07T21:20:47.664Z,17.84
2017-05-07T21:23:15.200Z,17.24
2017-05-07T21:25:42.861Z,16.34
2017-05-07T21:28:10.405Z,17.18
2017-05-07T21:30:38.072Z,16.90
2017-05-07T21:33:05.604Z,17.16
2017-05-07T21:35:33.240Z,18.64
2017-05-07T21:38:00.927Z,16.72
2017-05-07T21:40:28.510Z,16.06
2017-05-07T21:42:56.151Z,16.24
2017-05-07T21:45:23.721Z,18.42
2017-05-07T21:47:51.403Z,16.40
2017-05-07T21:50:18.943Z,16.56
2017-05-07T21:52:46.479Z,20.04
2017-05-07T21:55:14.072Z,16.88
2017-05-07T21:57:41.605Z,15.84
2017-05-07T22:00:09.296Z,15.56
2017-05-07T22:02:36.857Z,17.68
2017-05-07T22:05:04.856Z,15.64
2017-05-07T22:07:32.384Z,15.52
2017-05-07T22:09:59.919Z,15.92
2017-05-07T22:12:27.487Z,18.24
2017-05-07T22:14:55.012Z,16.86
2017-05-07T22:17:22.587Z,17.58
2017-05-07T22:19:50.107Z,15.58
2017-05-07T22:22:17.675Z,16.32
2017-05-07T22:24:45.192Z,15.56
2017-05-07T22:27:12.876Z,21.40
2017-05-07T22:29:40.399Z,17.34
2017-05-07T22:32:07.924Z,16.58
2017-05-07T22:34:35.489Z,17.94
2017-05-07T22:37:03.027Z,18.76
2017-05-07T22:39:30.947Z,18.20
2017-05-07T22:41:58.467Z,15.52
2017-05-07T22:44:26.012Z,16.96
2017-05-07T22:46:53.572Z,16.58
2017-05-07T22:49:21.084Z,16.60
2017-05-07T22:51:48.747Z,18.48
2017-05-07T22:54:16.268Z,19.14
2017-05-07T22:56:43.786Z,15.38
2017-05-07T22:59:11.352Z,17.12
2017-05-07T23:01:38.884Z,20.60
2017-05-07T23:04:06.604Z,17.46
2017-05-07T23:06:34.142Z,16.34
2017-05-07T23:09:01.679Z,16.50
2017-05-07T23:11:29.253Z,14.92
2017-05-07T23:13:56.784Z,15.88
2017-05-07T23:16:24.365Z,19.48
2017-05-07T23:18:52.435Z,16.08
2017-05-07T23:21:20.103Z,18.54
2017-05-07T23:23:47.615Z,14.26
2017-05-07T23:26:15.131Z,14.72
2017-05-07T23:28:42.717Z,15.14
2017-05-07T23:31:10.265Z,18.50
2017-05-07T23:33:37.819Z,16.38
2017-05-07T23:36:05.348Z,16.40
2017-05-07T23:38:33.014Z,19.22
2017-05-07T23:41:00.526Z,18.80
2017-05-07T23:43:28.049Z,18.76
2017-05-07T23:45:55.605Z,18.08
2017-05-07T23:48:23.124Z,14.64
2017-05-07T23:50:50.671Z,18.98
2017-05-07T23:53:18.185Z,20.18
2017-05-07T23:55:45.871Z,17.86
2017-05-07T23:58:13.486Z,21.52
